Time;durP1;ratioP1;P1;durP2;ratioP2;P2;SDS_P1;SDS_P2;PMS_P1;PMS_P2;Temp;Humidity;BMP_temperature;BMP_pressure;BME280_temperature;BME280_humidity;BME280_pressure;Samples;Min_cycle;Max_cycle;Signal;HPM_P1;HPM_P2
2022/06/03 00:00:08;;;;;;;0.40;0.40;;;11.20;99.90;;;;;;5014776;28;20454;-69
2022/06/03 00:03:21;;;;;;;0.40;0.40;;;11.10;99.90;;;;;;5014340;28;20450;-68
2022/06/03 00:06:28;;;;;;;0.40;0.40;;;11.10;99.90;;;;;;5014191;28;20461;-68
2022/06/03 00:09:39;;;;;;;0.50;0.50;;;11.10;99.90;;;;;;5014326;28;20476;-69
2022/06/03 00:12:48;;;;;;;0.40;0.40;;;11.00;99.90;;;;;;5014284;28;20461;-68
2022/06/03 00:16:04;;;;;;;0.40;0.40;;;11.00;99.90;;;;;;5014595;28;20417;-67
2022/06/03 00:19:11;;;;;;;0.40;0.40;;;11.00;99.90;;;;;;5013703;28;20429;-70
2022/06/03 00:22:17;;;;;;;0.50;0.50;;;10.90;99.90;;;;;;5013959;28;20441;-69
2022/06/03 00:25:27;;;;;;;0.40;0.40;;;10.90;99.90;;;;;;5014199;28;20812;-69
2022/06/03 00:28:37;;;;;;;0.50;0.50;;;10.80;99.90;;;;;;5014201;28;20500;-68
2022/06/03 00:31:43;;;;;;;0.43;0.43;;;10.80;99.90;;;;;;5013676;28;20429;-69
2022/06/03 00:34:50;;;;;;;0.43;0.43;;;10.80;99.90;;;;;;5013807;28;20610;-68
2022/06/03 00:37:46;;;;;;;0.40;0.40;;;10.80;99.90;;;;;;5013138;28;20427;-69
2022/06/03 00:40:51;;;;;;;0.50;0.50;;;10.70;99.90;;;;;;5012483;28;20441;-69
2022/06/03 00:43:52;;;;;;;0.40;0.40;;;10.60;99.90;;;;;;5013732;28;20510;-69
2022/06/03 00:46:55;;;;;;;0.47;0.47;;;10.60;99.90;;;;;;5012275;28;20504;-69
2022/06/03 00:50:04;;;;;;;0.43;0.43;;;10.50;99.90;;;;;;5012316;28;20437;-68
2022/06/03 00:53:14;;;;;;;0.40;0.40;;;10.50;99.90;;;;;;5013153;28;20508;-69
2022/06/03 00:56:34;;;;;;;0.40;0.40;;;10.50;99.90;;;;;;5012981;28;20678;-69
2022/06/03 00:59:42;;;;;;;1.07;1.07;;;10.50;99.90;;;;;;5011521;28;20445;-70
2022/06/03 01:02:49;;;;;;;0.50;0.50;;;10.50;99.90;;;;;;5012299;28;20457;-69
2022/06/03 01:05:57;;;;;;;0.40;0.40;;;10.40;99.90;;;;;;5024869;28;20457;-69
2022/06/03 01:08:59;;;;;;;0.47;0.47;;;10.40;99.90;;;;;;5051875;28;20509;-69
2022/06/03 01:12:06;;;;;;;0.50;0.50;;;10.40;99.90;;;;;;5050999;28;20423;-70
2022/06/03 01:15:10;;;;;;;0.40;0.40;;;10.30;99.90;;;;;;5051702;28;20928;-68
2022/06/03 01:18:11;;;;;;;0.50;0.50;;;10.30;99.90;;;;;;5052191;28;20420;-68
2022/06/03 01:21:15;;;;;;;0.40;0.40;;;10.30;99.90;;;;;;5050902;28;21014;-69
2022/06/03 01:24:25;;;;;;;0.40;0.40;;;10.30;99.90;;;;;;5051296;28;20452;-68
2022/06/03 01:27:50;;;;;;;0.40;0.40;;;10.20;99.90;;;;;;5051949;28;21022;-70
2022/06/03 01:31:00;;;;;;;0.40;0.40;;;10.20;99.90;;;;;;5050918;28;20452;-68
2022/06/03 01:34:03;;;;;;;0.50;0.50;;;10.20;99.90;;;;;;5051282;28;20463;-69
2022/06/03 01:37:06;;;;;;;0.40;0.40;;;10.10;99.90;;;;;;5050604;28;20990;-69
2022/06/03 01:40:18;;;;;;;0.50;0.50;;;10.20;99.90;;;;;;5050986;28;20420;-68
2022/06/03 01:43:44;;;;;;;0.50;0.50;;;10.10;99.90;;;;;;5050596;28;20508;-68
2022/06/03 01:46:37;;;;;;;0.40;0.40;;;10.00;99.90;;;;;;5051306;28;20475;-69
2022/06/03 01:49:45;;;;;;;0.50;0.50;;;10.00;99.90;;;;;;5051450;28;20423;-68
2022/06/03 01:53:05;;;;;;;0.40;0.40;;;9.90;99.90;;;;;;5050448;28;20521;-68
2022/06/03 01:56:24;;;;;;;0.47;0.47;;;9.90;99.90;;;;;;5050748;28;20439;-68
2022/06/03 01:59:45;;;;;;;0.60;0.60;;;9.90;99.90;;;;;;5052147;28;20977;-70
2022/06/03 02:03:01;;;;;;;0.50;0.50;;;9.80;99.90;;;;;;5054317;28;21041;-69
2022/06/03 02:06:22;;;;;;;0.40;0.40;;;9.70;99.90;;;;;;5054808;28;20424;-70
2022/06/03 02:09:38;;;;;;;0.50;0.50;;;9.70;99.90;;;;;;5037991;28;20489;-68
2022/06/03 02:12:49;;;;;;;0.43;0.43;;;9.70;99.90;;;;;;5054694;28;20549;-70
2022/06/03 02:16:02;;;;;;;0.50;0.50;;;9.70;99.90;;;;;;5054435;28;20463;-67
2022/06/03 02:19:17;;;;;;;0.40;0.40;;;9.70;99.90;;;;;;5054948;28;20513;-69
2022/06/03 02:22:59;;;;;;;0.50;0.50;;;9.70;99.90;;;;;;5054343;28;20455;-68
2022/06/03 02:26:10;;;;;;;0.50;0.50;;;9.70;99.90;;;;;;5039094;28;20448;-70
2022/06/03 02:32:54;;;;;;;0.40;0.40;;;9.60;99.90;;;;;;5055021;28;20535;-69
2022/06/03 02:36:06;;;;;;;0.50;0.50;;;9.60;99.90;;;;;;5054030;28;20451;-69
2022/06/03 02:39:04;;;;;;;0.50;0.50;;;9.50;99.90;;;;;;5053725;28;20439;-68
2022/06/03 02:42:11;;;;;;;0.50;0.50;;;9.50;99.90;;;;;;5054397;28;20428;-70
2022/06/03 02:45:30;;;;;;;0.40;0.40;;;9.50;99.90;;;;;;5054315;28;20443;-68
2022/06/03 02:48:56;;;;;;;0.40;0.40;;;9.50;99.90;;;;;;5054339;28;20999;-69
2022/06/03 02:52:20;;;;;;;0.50;0.50;;;9.50;99.90;;;;;;5053620;28;20466;-68
2022/06/03 02:55:26;;;;;;;0.50;0.50;;;9.50;99.90;;;;;;5047720;28;21022;-69
2022/06/03 02:58:53;;;;;;;0.40;0.40;;;9.50;99.90;;;;;;5053299;28;20416;-69
2022/06/03 03:01:57;;;;;;;0.50;0.50;;;9.50;99.90;;;;;;5053329;28;20834;-69
2022/06/03 03:05:17;;;;;;;0.40;0.40;;;9.40;99.90;;;;;;5053799;28;20431;-69
2022/06/03 03:08:36;;;;;;;0.50;0.50;;;9.50;99.90;;;;;;5054068;28;20492;-70
2022/06/03 03:11:50;;;;;;;0.43;0.43;;;9.40;99.90;;;;;;5052738;28;20529;-69
2022/06/03 03:15:00;;;;;;;0.50;0.50;;;9.50;99.90;;;;;;5053822;28;20420;-69
2022/06/03 03:18:27;;;;;;;0.50;0.50;;;9.50;99.90;;;;;;5053439;28;20439;-69
2022/06/03 03:21:35;;;;;;;0.50;0.50;;;9.50;99.90;;;;;;5031795;28;20443;-69
2022/06/03 03:25:03;;;;;;;0.40;0.40;;;9.50;99.90;;;;;;5053897;28;20952;-68
2022/06/03 03:28:35;;;;;;;0.40;0.40;;;9.60;99.90;;;;;;5052123;28;20463;-70
2022/06/03 03:31:44;;;;;;;0.50;0.50;;;9.60;99.90;;;;;;5052864;28;20432;-69
2022/06/03 03:35:03;;;;;;;0.40;0.40;;;9.60;99.90;;;;;;5053668;28;20424;-69
2022/06/03 03:38:33;;;;;;;0.50;0.50;;;9.70;99.90;;;;;;5053330;28;20506;-69
2022/06/03 03:41:49;;;;;;;0.50;0.50;;;9.60;99.90;;;;;;5041606;28;20428;-69
2022/06/03 03:45:10;;;;;;;0.40;0.40;;;9.70;99.90;;;;;;5053435;28;20424;-69
2022/06/03 03:48:28;;;;;;;0.40;0.40;;;9.70;99.90;;;;;;5052546;28;20558;-69
2022/06/03 03:51:39;;;;;;;0.40;0.40;;;9.80;99.90;;;;;;5052291;28;20432;-69
2022/06/03 03:54:50;;;;;;;0.40;0.40;;;9.90;99.90;;;;;;5052627;28;20479;-69
2022/06/03 03:58:08;;;;;;;0.40;0.40;;;9.90;99.90;;;;;;5053184;28;20458;-67
2022/06/03 04:01:44;;;;;;;0.47;0.47;;;9.90;99.90;;;;;;5052700;28;20424;-68
2022/06/03 04:05:01;;;;;;;0.40;0.40;;;10.00;99.90;;;;;;5052376;28;20422;-68
2022/06/03 04:08:21;;;;;;;0.40;0.40;;;10.10;99.90;;;;;;5052659;28;20464;-69
2022/06/03 04:11:55;;;;;;;0.50;0.50;;;10.10;99.90;;;;;;5052718;28;20416;-69
2022/06/03 04:15:35;;;;;;;0.40;0.40;;;10.10;99.90;;;;;;5052050;28;20424;-68
2022/06/03 04:18:57;;;;;;;0.50;0.50;;;10.20;99.90;;;;;;4991432;28;20426;-68
2022/06/03 04:22:15;;;;;;;0.50;0.50;;;10.30;99.90;;;;;;4995350;28;20506;-69
2022/06/03 04:25:33;;;;;;;0.40;0.40;;;10.40;99.90;;;;;;5057142;28;20428;-69
2022/06/03 04:28:53;;;;;;;0.50;0.50;;;10.40;99.90;;;;;;5052358;28;20460;-69
2022/06/03 04:32:14;;;;;;;0.40;0.40;;;10.50;99.90;;;;;;5052356;28;20428;-68
2022/06/03 04:35:37;;;;;;;0.50;0.50;;;10.50;99.90;;;;;;5053653;28;20436;-68
2022/06/03 04:39:10;;;;;;;0.40;0.40;;;10.60;99.90;;;;;;5052425;28;20431;-69
2022/06/03 04:42:51;;;;;;;0.40;0.40;;;10.70;99.90;;;;;;4991493;28;20443;-69
2022/06/03 04:46:14;;;;;;;0.40;0.40;;;10.80;99.90;;;;;;5053045;28;20443;-68
2022/06/03 04:49:35;;;;;;;0.43;0.43;;;10.90;99.90;;;;;;5053586;28;20464;-68
2022/06/03 04:52:58;;;;;;;0.50;0.50;;;11.00;99.90;;;;;;5052412;28;20494;-70
2022/06/03 04:56:26;;;;;;;0.40;0.40;;;11.20;99.90;;;;;;5052363;28;20466;-67
2022/06/03 04:59:57;;;;;;;0.50;0.50;;;11.20;99.90;;;;;;5051602;28;20486;-67
2022/06/03 05:03:25;;;;;;;0.40;0.40;;;11.40;99.90;;;;;;5053276;28;20534;-68
2022/06/03 05:06:52;;;;;;;0.40;0.40;;;11.60;99.90;;;;;;5054058;28;20940;-68
2022/06/03 05:10:17;;;;;;;0.40;0.40;;;11.60;99.90;;;;;;5052998;28;20420;-68
2022/06/03 05:13:44;;;;;;;0.40;0.40;;;11.70;99.90;;;;;;5051550;28;20522;-68
2022/06/03 05:17:05;;;;;;;0.50;0.50;;;11.80;99.90;;;;;;5051791;28;20482;-68
2022/06/03 05:20:20;;;;;;;0.40;0.40;;;11.90;99.90;;;;;;5051833;28;20459;-69
2022/06/03 05:23:36;;;;;;;0.40;0.40;;;12.00;99.90;;;;;;5051931;28;20463;-69
2022/06/03 05:27:09;;;;;;;0.40;0.40;;;12.10;99.90;;;;;;5052132;28;20432;-67
2022/06/03 05:30:22;;;;;;;0.40;0.40;;;12.20;99.90;;;;;;5051905;28;20420;-69
2022/06/03 05:33:41;;;;;;;0.50;0.50;;;12.30;99.90;;;;;;5042143;28;20752;-69
2022/06/03 05:36:59;;;;;;;0.40;0.40;;;12.40;99.90;;;;;;5031091;28;20448;-69
2022/06/03 05:40:03;;;;;;;0.40;0.40;;;12.60;99.90;;;;;;5032219;28;20429;-69
2022/06/03 05:43:31;;;;;;;0.40;0.40;;;12.70;99.90;;;;;;5033134;28;20453;-69
2022/06/03 05:46:34;;;;;;;0.43;0.43;;;12.80;99.90;;;;;;5022742;28;20956;-69
2022/06/03 05:49:36;;;;;;;0.50;0.50;;;13.00;99.90;;;;;;5033086;28;20456;-70
2022/06/03 05:52:36;;;;;;;0.40;0.40;;;13.00;99.90;;;;;;5048750;28;20842;-69
2022/06/03 05:55:35;;;;;;;0.40;0.40;;;13.20;99.90;;;;;;5052060;28;20428;-69
2022/06/03 05:58:34;;;;;;;0.40;0.40;;;13.30;99.90;;;;;;5051769;28;20420;-69
2022/06/03 06:01:34;;;;;;;0.60;0.60;;;13.40;99.90;;;;;;5038871;28;20810;-69
2022/06/03 06:04:35;;;;;;;0.50;0.50;;;13.50;99.90;;;;;;5021311;28;20844;-68
2022/06/03 06:07:32;;;;;;;0.40;0.40;;;13.60;99.90;;;;;;5032495;28;20444;-68
2022/06/03 06:10:33;;;;;;;0.40;0.40;;;13.70;99.90;;;;;;5032604;28;20429;-68
2022/06/03 06:13:41;;;;;;;0.40;0.40;;;14.00;99.90;;;;;;5033034;28;20472;-69
2022/06/03 06:16:35;;;;;;;0.40;0.40;;;14.10;99.90;;;;;;5033374;28;20206;-68
2022/06/03 06:19:40;;;;;;;0.50;0.50;;;14.10;99.90;;;;;;5033138;28;20776;-68
2022/06/03 06:22:34;;;;;;;0.40;0.40;;;14.10;99.90;;;;;;5013773;28;20222;-69
2022/06/03 06:25:32;;;;;;;0.40;0.40;;;14.20;99.90;;;;;;5013642;28;20977;-68
2022/06/03 06:28:41;;;;;;;0.40;0.40;;;14.40;99.90;;;;;;5012264;28;20819;-68
2022/06/03 06:32:07;;;;;;;0.40;0.40;;;14.50;99.90;;;;;;5012360;28;20802;-69
2022/06/03 06:35:15;;;;;;;0.70;0.70;;;14.60;99.90;;;;;;5000805;28;20445;-69
2022/06/03 06:38:12;;;;;;;2.27;2.10;;;14.70;99.90;;;;;;5012886;28;20434;-68
2022/06/03 06:41:17;;;;;;;0.40;0.40;;;14.90;99.90;;;;;;5013191;28;20437;-67
2022/06/03 06:44:09;;;;;;;0.40;0.40;;;15.10;99.90;;;;;;5013787;28;20373;-68
2022/06/03 06:47:04;;;;;;;0.50;0.50;;;15.20;99.90;;;;;;5015119;28;20591;-68
2022/06/03 06:50:09;;;;;;;0.40;0.40;;;15.20;99.90;;;;;;5016889;28;20596;-67
2022/06/03 06:53:06;;;;;;;0.50;0.50;;;15.40;99.90;;;;;;5017970;28;20468;-68
2022/06/03 06:56:05;;;;;;;0.40;0.40;;;15.50;99.90;;;;;;5036851;28;20670;-69
2022/06/03 06:58:57;;;;;;;0.50;0.50;;;15.60;99.90;;;;;;5036134;28;20222;-67
2022/06/03 07:01:49;;;;;;;0.50;0.50;;;15.70;99.90;;;;;;5029769;28;20756;-68
2022/06/03 07:04:50;;;;;;;0.50;0.50;;;15.80;99.90;;;;;;5025865;28;20211;-69
2022/06/03 07:07:46;;;;;;;0.40;0.40;;;16.00;99.90;;;;;;5026114;28;20229;-69
2022/06/03 07:10:44;;;;;;;0.40;0.40;;;16.10;99.90;;;;;;5018065;28;20296;-68
2022/06/03 07:13:39;;;;;;;0.40;0.40;;;16.20;99.90;;;;;;5022987;28;20694;-67
2022/06/03 07:19:58;;;;;;;0.40;0.40;;;16.40;99.90;;;;;;5029649;28;20202;-68
2022/06/03 07:22:52;;;;;;;0.47;0.47;;;16.50;99.90;;;;;;5030379;28;20230;-69
2022/06/03 07:25:46;;;;;;;0.50;0.50;;;16.60;99.90;;;;;;5033644;28;20202;-69
2022/06/03 07:28:43;;;;;;;0.50;0.50;;;16.60;99.90;;;;;;5034751;28;20214;-69
2022/06/03 07:31:37;;;;;;;0.40;0.40;;;16.70;99.90;;;;;;5034639;28;20209;-69
2022/06/03 07:34:31;;;;;;;0.40;0.40;;;16.70;99.90;;;;;;5032878;28;20220;-70
2022/06/03 07:37:25;;;;;;;0.40;0.40;;;16.90;99.90;;;;;;5025177;28;20206;-68
2022/06/03 07:40:17;;;;;;;0.40;0.40;;;16.90;99.90;;;;;;5031922;28;20205;-68
2022/06/03 07:43:10;;;;;;;0.40;0.40;;;17.10;99.90;;;;;;5014715;28;20232;-69
2022/06/03 07:46:04;;;;;;;0.40;0.40;;;17.10;99.90;;;;;;5015904;28;20585;-71
2022/06/03 07:48:53;;;;;;;0.40;0.40;;;17.20;99.90;;;;;;5032459;28;20225;-69
2022/06/03 07:51:47;;;;;;;0.40;0.40;;;17.30;99.90;;;;;;5033042;28;20202;-69
2022/06/03 07:54:36;;;;;;;0.40;0.40;;;17.40;99.90;;;;;;5030994;28;20291;-70
2022/06/03 07:57:27;;;;;;;0.40;0.40;;;17.40;99.90;;;;;;5029318;28;20221;-70
2022/06/03 08:00:18;;;;;;;0.40;0.40;;;17.40;99.90;;;;;;5031172;28;20206;-70
2022/06/03 08:03:14;;;;;;;0.50;0.50;;;17.50;99.90;;;;;;5028563;28;20285;-70
2022/06/03 08:06:06;;;;;;;0.40;0.40;;;17.50;99.90;;;;;;5031830;28;20233;-71
2022/06/03 08:12:00;;;;;;;0.40;0.40;;;17.70;99.90;;;;;;5028292;28;20729;-70
2022/06/03 08:14:48;;;;;;;0.40;0.40;;;17.70;99.90;;;;;;5030968;28;20239;-70
2022/06/03 08:17:36;;;;;;;0.40;0.40;;;17.80;99.90;;;;;;5031497;28;20281;-71
2022/06/03 08:20:27;;;;;;;0.40;0.40;;;17.90;99.90;;;;;;5011173;28;20256;-70
2022/06/03 08:23:16;;;;;;;0.40;0.40;;;17.90;99.90;;;;;;5014042;28;20652;-70
2022/06/03 08:26:08;;;;;;;0.40;0.40;;;18.00;99.90;;;;;;5018525;28;20199;-73
2022/06/03 08:29:06;;;;;;;0.40;0.40;;;18.00;99.90;;;;;;5027935;28;20298;-69
2022/06/03 08:31:55;;;;;;;0.50;0.50;;;18.10;99.90;;;;;;5026238;28;20736;-72
2022/06/03 08:34:48;;;;;;;0.40;0.40;;;18.20;99.90;;;;;;5011767;28;20668;-72
2022/06/03 08:37:44;;;;;;;0.40;0.40;;;18.30;99.90;;;;;;5011908;28;20264;-71
2022/06/03 08:40:39;;;;;;;0.40;0.40;;;18.30;99.90;;;;;;5030097;28;20230;-70
2022/06/03 08:43:30;;;;;;;0.50;0.50;;;18.50;99.90;;;;;;5030302;28;20228;-73
2022/06/03 08:46:25;;;;;;;1.08;1.08;;;18.40;99.90;;;;;;5030627;28;20585;-70
2022/06/03 08:49:19;;;;;;;0.50;0.50;;;18.50;99.90;;;;;;5030772;28;20280;-71
2022/06/03 08:52:11;;;;;;;0.40;0.40;;;18.60;99.90;;;;;;5031399;28;20221;-73
2022/06/03 08:55:08;;;;;;;0.40;0.40;;;18.70;99.90;;;;;;5018696;28;20671;-73
2022/06/03 08:58:02;;;;;;;0.40;0.40;;;18.80;99.90;;;;;;5014609;28;20225;-71
2022/06/03 09:01:11;;;;;;;0.40;0.40;;;18.80;99.90;;;;;;5012471;28;20194;-73
2022/06/03 09:04:10;;;;;;;0.60;0.60;;;18.90;99.90;;;;;;5031611;28;20305;-71
2022/06/03 09:07:05;;;;;;;0.40;0.40;;;18.90;99.90;;;;;;5013733;28;20664;-70
2022/06/03 09:09:58;;;;;;;0.40;0.40;;;19.00;99.90;;;;;;5013203;28;20239;-73
2022/06/03 09:12:55;;;;;;;0.40;0.40;;;19.00;99.90;;;;;;5021797;28;20226;-69
2022/06/03 09:15:46;;;;;;;0.40;0.40;;;19.10;99.90;;;;;;5021942;28;20292;-70
2022/06/03 09:18:37;;;;;;;0.40;0.40;;;19.10;99.90;;;;;;5021408;28;20199;-70
2022/06/03 09:21:28;;;;;;;0.40;0.40;;;19.10;99.90;;;;;;5029494;28;20205;-70
2022/06/03 09:24:20;;;;;;;0.50;0.50;;;19.30;99.90;;;;;;5020070;28;20202;-73
2022/06/03 09:27:11;;;;;;;0.40;0.40;;;19.40;99.90;;;;;;5020495;28;20277;-73
2022/06/03 09:30:05;;;;;;;0.40;0.40;;;19.50;99.90;;;;;;5023349;28;20206;-74
2022/06/03 09:32:56;;;;;;;0.40;0.40;;;19.60;99.60;;;;;;5020858;28;20272;-72
2022/06/03 09:35:48;;;;;;;0.40;0.40;;;19.60;99.50;;;;;;5014133;28;20606;-73
2022/06/03 09:38:47;;;;;;;0.40;0.40;;;19.70;98.80;;;;;;5024192;28;20683;-72
2022/06/03 09:41:37;;;;;;;0.40;0.40;;;19.60;99.50;;;;;;5027565;28;20198;-70
2022/06/03 09:44:27;;;;;;;0.40;0.40;;;19.70;99.90;;;;;;5017161;28;20732;-70
2022/06/03 09:47:19;;;;;;;0.40;0.40;;;19.80;99.90;;;;;;5013657;28;20682;-69
2022/06/03 09:50:09;;;;;;;0.40;0.40;;;20.00;99.20;;;;;;5028751;28;20602;-70
2022/06/03 09:53:04;;;;;;;0.40;0.40;;;19.90;97.60;;;;;;5018749;28;20218;-69
2022/06/03 09:55:56;;;;;;;0.40;0.40;;;19.90;98.30;;;;;;5019373;28;20556;-69
2022/06/03 09:58:46;;;;;;;0.40;0.40;;;19.90;98.50;;;;;;5027379;28;20696;-69
2022/06/03 10:01:35;;;;;;;0.40;0.40;;;20.00;97.50;;;;;;5031568;28;20579;-69
2022/06/03 10:04:25;;;;;;;0.40;0.40;;;20.10;96.90;;;;;;5021437;28;20199;-69
2022/06/03 10:07:13;;;;;;;0.40;0.40;;;20.10;96.60;;;;;;5026305;28;20207;-71
2022/06/03 10:13:09;;;;;;;0.40;0.40;;;20.30;96.10;;;;;;5014130;28;20234;-69
2022/06/03 10:16:00;;;;;;;0.40;0.40;;;20.30;95.50;;;;;;5030142;28;20252;-69
2022/06/03 10:18:50;;;;;;;0.40;0.40;;;20.40;94.90;;;;;;5022922;28;20213;-68
2022/06/03 10:21:51;;;;;;;0.40;0.40;;;20.40;94.40;;;;;;5025758;28;20713;-73
2022/06/03 10:24:39;;;;;;;0.50;0.50;;;20.40;94.60;;;;;;5024378;28;20197;-71
2022/06/03 10:27:27;;;;;;;0.40;0.40;;;20.50;95.10;;;;;;5023980;28;20687;-69
2022/06/03 10:30:24;;;;;;;0.40;0.40;;;20.50;95.00;;;;;;5020114;28;20694;-70
2022/06/03 10:33:17;;;;;;;0.40;0.40;;;20.60;94.00;;;;;;5031008;28;20287;-69
2022/06/03 10:36:06;;;;;;;0.40;0.40;;;20.60;94.50;;;;;;5029114;28;20285;-70
2022/06/03 10:38:56;;;;;;;0.40;0.40;;;20.60;94.00;;;;;;5018909;28;20732;-67
2022/06/03 10:41:47;;;;;;;0.40;0.40;;;20.70;94.80;;;;;;5032288;28;20634;-68
2022/06/03 10:44:36;;;;;;;0.40;0.40;;;20.70;94.20;;;;;;5027048;28;20284;-68
2022/06/03 10:47:36;;;;;;;0.40;0.40;;;20.80;94.70;;;;;;5023993;28;20249;-68
2022/06/03 10:50:31;;;;;;;0.40;0.40;;;20.90;94.60;;;;;;5021527;28;20221;-69
2022/06/03 11:03:08;;;;;;;0.40;0.40;;;21.10;93.60;;;;;;5035475;28;20234;-69
2022/06/03 11:05:57;;;;;;;0.40;0.40;;;21.20;93.30;;;;;;5017745;28;20242;-69
2022/06/03 11:08:52;;;;;;;0.40;0.40;;;21.20;92.80;;;;;;5014785;28;20207;-68
2022/06/03 11:11:45;;;;;;;0.40;0.40;;;21.30;92.70;;;;;;5023956;28;20222;-68
2022/06/03 11:14:38;;;;;;;0.40;0.40;;;21.30;92.60;;;;;;5027177;28;20276;-69
2022/06/03 11:17:35;;;;;;;0.40;0.40;;;21.40;92.50;;;;;;5039588;28;20225;-68
2022/06/03 11:20:34;;;;;;;0.50;0.50;;;21.50;92.20;;;;;;5024070;28;20277;-72
2022/06/03 11:23:23;;;;;;;0.40;0.40;;;21.50;92.60;;;;;;5022521;28;20227;-72
2022/06/03 11:26:12;;;;;;;0.40;0.40;;;21.70;92.70;;;;;;5026578;28;20604;-70
2022/06/03 11:29:07;;;;;;;0.40;0.40;;;21.80;92.00;;;;;;5025090;28;20811;-69
2022/06/03 11:31:56;;;;;;;0.50;0.50;;;21.90;92.40;;;;;;5016074;28;20702;-70
2022/06/03 11:35:01;;;;;;;0.40;0.40;;;22.10;92.20;;;;;;5032179;28;20205;-69
2022/06/03 11:37:53;;;;;;;0.40;0.40;;;22.10;91.60;;;;;;5031754;28;20260;-69
2022/06/03 11:40:52;;;;;;;0.40;0.40;;;22.20;90.80;;;;;;5032440;28;20233;-69
2022/06/03 11:43:49;;;;;;;0.40;0.40;;;22.20;90.00;;;;;;5031930;28;20727;-69
2022/06/03 11:46:54;;;;;;;3.92;3.30;;;22.20;90.60;;;;;;5031905;28;20212;-69
2022/06/03 11:49:42;;;;;;;0.40;0.40;;;22.30;90.40;;;;;;5032207;28;20205;-69
2022/06/03 11:52:31;;;;;;;0.40;0.40;;;22.30;91.30;;;;;;5032228;28;20237;-71
2022/06/03 11:55:19;;;;;;;0.40;0.40;;;22.50;90.70;;;;;;5032889;28;20702;-68
2022/06/03 11:58:14;;;;;;;0.40;0.40;;;22.60;90.50;;;;;;5032812;28;20206;-70
2022/06/03 12:01:09;;;;;;;0.40;0.40;;;22.70;86.90;;;;;;5032520;28;20317;-70
2022/06/03 12:04:04;;;;;;;0.40;0.40;;;22.80;83.90;;;;;;5031829;28;20249;-69
2022/06/03 12:07:04;;;;;;;0.40;0.40;;;22.80;79.30;;;;;;5031952;28;20205;-68
2022/06/03 12:10:10;;;;;;;0.40;0.40;;;22.80;81.40;;;;;;5032272;28;20206;-70
2022/06/03 12:13:18;;;;;;;0.40;0.40;;;22.80;84.60;;;;;;5032452;28;20244;-69
2022/06/03 12:16:11;;;;;;;0.40;0.40;;;22.90;83.30;;;;;;5032281;28;20205;-69
2022/06/03 12:19:04;;;;;;;0.40;0.40;;;22.90;85.50;;;;;;5031922;28;20674;-69
2022/06/03 12:22:14;;;;;;;0.40;0.40;;;23.20;83.00;;;;;;5032383;28;20623;-68
2022/06/03 12:25:03;;;;;;;0.40;0.40;;;23.30;83.20;;;;;;5031823;28;20209;-67
2022/06/03 12:27:54;;;;;;;0.40;0.40;;;23.40;82.40;;;;;;5031755;28;20205;-68
2022/06/03 12:30:47;;;;;;;0.40;0.40;;;23.60;82.40;;;;;;5031568;28;20202;-69
2022/06/03 12:33:46;;;;;;;0.40;0.40;;;23.70;82.00;;;;;;5032616;28;20228;-68
2022/06/03 12:36:39;;;;;;;0.40;0.40;;;24.00;82.70;;;;;;5032739;28;20212;-70
2022/06/03 12:39:30;;;;;;;0.40;0.40;;;24.70;81.00;;;;;;5031853;28;20245;-68
2022/06/03 12:42:40;;;;;;;0.40;0.40;;;26.30;78.50;;;;;;5032337;28;20210;-67
2022/06/03 12:45:31;;;;;;;0.40;0.40;;;29.30;71.30;;;;;;5031875;28;20206;-67
2022/06/03 12:48:36;;;;;;;0.40;0.40;;;32.00;65.00;;;;;;5031104;28;20241;-67
2022/06/03 12:51:28;;;;;;;0.40;0.40;;;34.50;56.90;;;;;;5031552;28;20236;-67
2022/06/03 12:54:19;;;;;;;0.40;0.40;;;36.30;51.10;;;;;;5031724;28;20285;-67
2022/06/03 12:57:10;;;;;;;0.40;0.40;;;36.70;47.90;;;;;;5031597;28;20197;-68
2022/06/03 13:00:02;;;;;;;0.50;0.50;;;37.70;46.60;;;;;;5030985;28;20687;-68
2022/06/03 13:02:56;;;;;;;0.40;0.40;;;38.90;43.60;;;;;;5031475;28;20765;-68
2022/06/03 13:05:46;;;;;;;0.40;0.40;;;39.90;41.70;;;;;;5031872;28;20572;-67
2022/06/03 13:11:46;;;;;;;0.40;0.40;;;41.60;39.50;;;;;;5031047;28;20280;-67
2022/06/03 13:14:35;;;;;;;0.40;0.40;;;42.70;37.80;;;;;;5031933;28;20593;-67
2022/06/03 13:17:54;;;;;;;0.40;0.40;;;43.00;36.00;;;;;;5031429;28;20233;-68
2022/06/03 13:20:45;;;;;;;0.40;0.40;;;43.00;35.70;;;;;;5032794;28;20198;-68
2022/06/03 13:23:35;;;;;;;0.40;0.40;;;43.00;34.80;;;;;;5032732;28;20272;-68
2022/06/03 13:26:47;;;;;;;0.70;0.70;;;43.60;32.90;;;;;;5031851;28;20252;-68
2022/06/03 13:30:11;;;;;;;0.50;0.50;;;44.30;33.10;;;;;;5030468;28;20255;-69
2022/06/03 13:33:12;;;;;;;0.50;0.50;;;45.10;32.90;;;;;;5030835;28;20433;-68
2022/06/03 13:36:04;;;;;;;0.50;0.50;;;44.80;31.50;;;;;;5030185;28;20736;-68
2022/06/03 13:38:52;;;;;;;0.50;0.50;;;44.60;31.30;;;;;;5030246;28;20255;-68
2022/06/03 13:45:12;;;;;;;0.50;0.50;;;44.20;31.70;;;;;;5030949;28;20202;-68
2022/06/03 13:48:00;;;;;;;0.50;0.50;;;43.60;32.10;;;;;;5030900;28;20280;-68
2022/06/03 13:50:49;;;;;;;0.45;0.45;;;41.80;32.10;;;;;;5030579;28;20237;-68
2022/06/03 13:53:39;;;;;;;0.50;0.50;;;41.00;32.90;;;;;;5030930;28;20723;-67
2022/06/03 13:56:30;;;;;;;0.50;0.50;;;40.10;33.50;;;;;;5034662;28;20197;-67
2022/06/03 13:59:18;;;;;;;0.45;0.45;;;39.90;34.10;;;;;;5033925;28;20202;-67
2022/06/03 14:02:18;;;;;;;0.40;0.40;;;41.20;34.40;;;;;;5033855;28;20218;-68
2022/06/03 14:05:10;;;;;;;0.40;0.40;;;42.90;32.80;;;;;;5034431;28;20209;-68
2022/06/03 14:08:03;;;;;;;0.50;0.50;;;43.80;31.70;;;;;;5035031;28;20202;-68
2022/06/03 14:11:01;;;;;;;0.82;0.82;;;44.20;31.20;;;;;;5034649;28;20559;-67
2022/06/03 14:13:56;;;;;;;0.50;0.50;;;45.30;31.30;;;;;;5034378;28;20240;-68
2022/06/03 14:16:48;;;;;;;0.50;0.50;;;45.60;30.70;;;;;;5033075;28;20234;-68
2022/06/03 14:19:51;;;;;;;0.50;0.50;;;46.20;30.70;;;;;;5034193;28;20201;-68
2022/06/03 14:22:56;;;;;;;0.50;0.50;;;45.70;30.60;;;;;;5032743;28;20217;-68
2022/06/03 14:25:51;;;;;;;0.50;0.50;;;45.50;30.90;;;;;;5034497;28;20256;-68
2022/06/03 14:28:47;;;;;;;0.50;0.50;;;46.10;30.40;;;;;;5034338;28;20618;-68
2022/06/03 14:31:41;;;;;;;0.60;0.60;;;47.10;30.30;;;;;;5034305;28;20209;-69
2022/06/03 14:34:33;;;;;;;0.50;0.50;;;46.70;29.20;;;;;;5033796;28;20202;-68
2022/06/03 14:37:28;;;;;;;0.50;0.50;;;46.10;30.00;;;;;;5033052;28;20584;-69
2022/06/03 14:40:25;;;;;;;0.50;0.50;;;46.20;30.10;;;;;;5033475;28;20280;-68
2022/06/03 14:43:17;;;;;;;0.50;0.50;;;45.20;29.70;;;;;;5033386;28;20233;-68
2022/06/03 14:46:11;;;;;;;0.60;0.60;;;45.40;30.10;;;;;;5034242;28;20220;-70
2022/06/03 14:49:05;;;;;;;0.50;0.50;;;45.60;30.10;;;;;;5033570;28;20212;-68
2022/06/03 14:51:56;;;;;;;0.60;0.60;;;46.30;29.90;;;;;;5033077;28;20202;-68
2022/06/03 14:54:53;;;;;;;0.50;0.50;;;47.30;29.80;;;;;;5033054;28;20733;-68
2022/06/03 14:57:48;;;;;;;0.50;0.50;;;47.60;29.40;;;;;;5033675;28;20202;-68
2022/06/03 15:01:01;;;;;;;0.60;0.60;;;47.80;29.30;;;;;;5033730;28;20579;-68
2022/06/03 15:03:53;;;;;;;0.50;0.50;;;47.00;28.70;;;;;;5033369;28;20426;-68
2022/06/03 15:06:45;;;;;;;0.50;0.50;;;46.40;29.20;;;;;;5031875;28;20617;-68
2022/06/03 15:09:39;;;;;;;0.50;0.50;;;46.20;29.60;;;;;;5033501;28;20209;-68
2022/06/03 15:12:33;;;;;;;0.50;0.50;;;46.40;29.60;;;;;;5033139;28;20226;-69
2022/06/03 15:15:28;;;;;;;0.60;0.60;;;47.00;29.30;;;;;;5033193;28;20568;-68
2022/06/03 15:18:18;;;;;;;0.60;0.60;;;47.60;29.10;;;;;;5032799;28;20256;-68
2022/06/03 15:21:12;;;;;;;0.50;0.50;;;47.90;28.90;;;;;;5034328;28;20202;-68
2022/06/03 15:24:04;;;;;;;0.60;0.60;;;48.30;28.90;;;;;;5037397;28;20226;-68
2022/06/03 15:26:52;;;;;;;0.60;0.60;;;48.30;28.90;;;;;;5032827;28;20198;-69
2022/06/03 15:29:45;;;;;;;0.60;0.60;;;48.50;28.40;;;;;;5031570;28;20202;-71
2022/06/03 15:32:39;;;;;;;0.55;0.55;;;47.70;28.00;;;;;;5033267;28;20211;-70
2022/06/03 15:35:29;;;;;;;0.50;0.50;;;47.70;28.40;;;;;;5033434;28;20726;-70
2022/06/03 15:38:23;;;;;;;0.50;0.50;;;46.80;28.80;;;;;;5033259;28;20209;-68
2022/06/03 15:41:14;;;;;;;0.57;0.57;;;45.30;29.50;;;;;;5033112;28;20268;-68
2022/06/03 15:44:02;;;;;;;0.50;0.50;;;45.50;29.50;;;;;;5033632;28;20223;-68
2022/06/03 15:46:59;;;;;;;0.60;0.60;;;46.40;29.30;;;;;;5032739;28;20209;-68
2022/06/03 15:49:50;;;;;;;0.50;0.50;;;46.70;28.90;;;;;;5033368;28;20566;-69
2022/06/03 15:52:44;;;;;;;0.60;0.60;;;46.50;28.90;;;;;;5032440;28;20217;-69
2022/06/03 15:55:38;;;;;;;0.50;0.50;;;45.50;28.70;;;;;;5032428;28;20233;-69
2022/06/03 15:58:38;;;;;;;0.50;0.50;;;45.90;29.50;;;;;;5032467;28;20205;-69
2022/06/03 16:01:45;;;;;;;0.63;0.63;;;46.00;28.90;;;;;;5031628;28;20198;-69
2022/06/03 16:04:50;;;;;;;0.98;0.98;;;44.50;29.10;;;;;;5032841;28;20198;-69
2022/06/03 16:08:02;;;;;;;0.50;0.50;;;43.50;30.20;;;;;;5032579;28;20209;-68
2022/06/03 16:11:04;;;;;;;0.40;0.40;;;42.20;30.10;;;;;;5032382;28;20623;-69
2022/06/03 16:13:59;;;;;;;0.40;0.40;;;40.90;32.10;;;;;;5031392;28;20233;-69
2022/06/03 16:17:03;;;;;;;0.50;0.50;;;41.60;31.90;;;;;;5031024;28;20206;-69